sensor_id;sensor_type;location;lat;lon;timestamp;pressure;altitude;pressure_sealevel;temperature;humidity
77793;BME280;66983;51.438;5.438;2024-03-23T00:52:12;100985.19;;;11.39;100.00
77793;BME280;66983;51.438;5.438;2024-03-23T00:54:38;100972.66;;;11.41;100.00
77793;BME280;66983;51.438;5.438;2024-03-23T00:57:03;100975.50;;;11.36;100.00
77793;BME280;66983;51.438;5.438;2024-03-23T00:59:29;100980.66;;;11.41;100.00
77793;BME280;66983;51.438;5.438;2024-03-23T01:01:56;100966.69;;;11.34;100.00
77793;BME280;66983;51.438;5.438;2024-03-23T01:04:22;100968.34;;;11.37;100.00
77793;BME280;66983;51.438;5.438;2024-03-23T01:06:47;100978.34;;;11.32;100.00
77793;BME280;66983;51.438;5.438;2024-03-23T01:09:13;100973.00;;;11.32;100.00
77793;BME280;66983;51.438;5.438;2024-03-23T01:11:39;100976.72;;;11.28;100.00
77793;BME280;66983;51.438;5.438;2024-03-23T01:14:05;100962.31;;;11.32;100.00
77793;BME280;66983;51.438;5.438;2024-03-23T01:16:32;100953.63;;;11.27;100.00
77793;BME280;66983;51.438;5.438;2024-03-23T01:18:57;100945.50;;;11.30;100.00
77793;BME280;66983;51.438;5.438;2024-03-23T01:21:23;100941.28;;;11.24;100.00
77793;BME280;66983;51.438;5.438;2024-03-23T01:23:48;100944.88;;;11.23;100.00
77793;BME280;66983;51.438;5.438;2024-03-23T01:26:14;100953.63;;;11.27;100.00
77793;BME280;66983;51.438;5.438;2024-03-23T01:28:40;100948.34;;;11.25;100.00
77793;BME280;66983;51.438;5.438;2024-03-23T01:31:06;100967.25;;;11.19;100.00
77793;BME280;66983;51.438;5.438;2024-03-23T01:33:31;100955.00;;;11.15;100.00
77793;BME280;66983;51.438;5.438;2024-03-23T01:35:57;100957.22;;;11.04;100.00
77793;BME280;66983;51.438;5.438;2024-03-23T01:38:22;100943.94;;;11.02;100.00
77793;BME280;66983;51.438;5.438;2024-03-23T01:40:48;100967.00;;;11.03;100.00
77793;BME280;66983;51.438;5.438;2024-03-23T01:43:13;100965.22;;;11.04;100.00
77793;BME280;66983;51.438;5.438;2024-03-23T01:45:39;100968.97;;;10.98;100.00
77793;BME280;66983;51.438;5.438;2024-03-23T01:48:05;100974.63;;;10.91;100.00
77793;BME280;66983;51.438;5.438;2024-03-23T01:50:32;100961.47;;;10.86;100.00
77793;BME280;66983;51.438;5.438;2024-03-23T01:53:02;100945.63;;;10.81;100.00
77793;BME280;66983;51.438;5.438;2024-03-23T01:55:28;100942.22;;;10.78;100.00
77793;BME280;66983;51.438;5.438;2024-03-23T01:57:56;100946.63;;;10.79;100.00
77793;BME280;66983;51.438;5.438;2024-03-23T02:00:23;100942.34;;;10.75;100.00
77793;BME280;66983;51.438;5.438;2024-03-23T02:02:48;100952.00;;;10.77;100.00
77793;BME280;66983;51.438;5.438;2024-03-23T02:05:14;100952.88;;;10.78;100.00
77793;BME280;66983;51.438;5.438;2024-03-23T02:07:41;100954.69;;;10.77;100.00
77793;BME280;66983;51.438;5.438;2024-03-23T02:10:09;100969.69;;;10.80;100.00
77793;BME280;66983;51.438;5.438;2024-03-23T02:12:36;100970.63;;;10.79;100.00
77793;BME280;66983;51.438;5.438;2024-03-23T02:15:02;100957.63;;;10.70;100.00
77793;BME280;66983;51.438;5.438;2024-03-23T02:17:33;100965.56;;;10.71;100.00
77793;BME280;66983;51.438;5.438;2024-03-23T02:19:59;100956.97;;;10.65;100.00
77793;BME280;66983;51.438;5.438;2024-03-23T02:22:25;100956.81;;;10.68;100.00
77793;BME280;66983;51.438;5.438;2024-03-23T02:24:51;100947.84;;;10.70;100.00
77793;BME280;66983;51.438;5.438;2024-03-23T02:27:16;100938.75;;;10.76;100.00
77793;BME280;66983;51.438;5.438;2024-03-23T02:29:42;100925.28;;;10.79;100.00
77793;BME280;66983;51.438;5.438;2024-03-23T02:32:07;100922.41;;;10.85;100.00
77793;BME280;66983;51.438;5.438;2024-03-23T02:34:35;100920.53;;;10.87;100.00
77793;BME280;66983;51.438;5.438;2024-03-23T02:37:00;100915.22;;;10.87;100.00
77793;BME280;66983;51.438;5.438;2024-03-23T02:39:26;100913.31;;;10.91;100.00
77793;BME280;66983;51.438;5.438;2024-03-23T02:41:51;100907.09;;;10.90;100.00
77793;BME280;66983;51.438;5.438;2024-03-23T02:44:17;100914.28;;;10.88;100.00
77793;BME280;66983;51.438;5.438;2024-03-23T02:46:42;100914.34;;;10.86;100.00
77793;BME280;66983;51.438;5.438;2024-03-23T02:49:08;100914.28;;;10.88;100.00
77793;BME280;66983;51.438;5.438;2024-03-23T02:51:33;100913.31;;;10.91;100.00
77793;BME280;66983;51.438;5.438;2024-03-23T02:53:59;100907.22;;;10.87;100.00
77793;BME280;66983;51.438;5.438;2024-03-23T02:56:24;100897.47;;;10.86;100.00
77793;BME280;66983;51.438;5.438;2024-03-23T02:58:50;100900.38;;;10.80;100.00
77793;BME280;66983;51.438;5.438;2024-03-23T03:01:15;100906.56;;;10.80;100.00
77793;BME280;66983;51.438;5.438;2024-03-23T03:03:41;100909.06;;;10.85;100.00
77793;BME280;66983;51.438;5.438;2024-03-23T03:06:06;100903.63;;;10.88;100.00
77793;BME280;66983;51.438;5.438;2024-03-23T03:08:32;100913.53;;;10.84;100.00
77793;BME280;66983;51.438;5.438;2024-03-23T03:10:58;100911.84;;;10.82;100.00
77793;BME280;66983;51.438;5.438;2024-03-23T03:13:23;100921.75;;;10.78;100.00
77793;BME280;66983;51.438;5.438;2024-03-23T03:15:49;100916.59;;;10.74;100.00
77793;BME280;66983;51.438;5.438;2024-03-23T03:18:14;100917.47;;;10.74;100.00
77793;BME280;66983;51.438;5.438;2024-03-23T03:20:40;100914.09;;;10.69;100.00
77793;BME280;66983;51.438;5.438;2024-03-23T03:23:06;100917.91;;;10.64;100.00
77793;BME280;66983;51.438;5.438;2024-03-23T03:25:33;100919.75;;;10.62;100.00
77793;BME280;66983;51.438;5.438;2024-03-23T03:27:59;100852.66;;;10.27;100.00
77793;BME280;66983;51.438;5.438;2024-03-23T03:30:25;100912.56;;;10.64;100.00
77793;BME280;66983;51.438;5.438;2024-03-23T03:32:53;100923.28;;;10.62;100.00
77793;BME280;66983;51.438;5.438;2024-03-23T03:35:19;100916.38;;;10.57;100.00
77793;BME280;66983;51.438;5.438;2024-03-23T03:37:45;100916.50;;;10.53;100.00
77793;BME280;66983;51.438;5.438;2024-03-23T03:40:11;100906.88;;;10.49;100.00
77793;BME280;66983;51.438;5.438;2024-03-23T03:42:37;100902.59;;;10.45;100.00
77793;BME280;66983;51.438;5.438;2024-03-23T03:45:03;100904.53;;;10.40;100.00
77793;BME280;66983;51.438;5.438;2024-03-23T03:47:30;100902.88;;;10.38;100.00
77793;BME280;66983;51.438;5.438;2024-03-23T03:49:55;100898.53;;;10.35;100.00
77793;BME280;66983;51.438;5.438;2024-03-23T03:52:21;100896.75;;;10.36;100.00
77793;BME280;66983;51.438;5.438;2024-03-23T03:54:47;100899.56;;;10.31;100.00
77793;BME280;66983;51.438;5.438;2024-03-23T03:57:12;100907.56;;;10.31;100.00
77793;BME280;66983;51.438;5.438;2024-03-23T03:59:38;100891.59;;;10.31;100.00
77793;BME280;66983;51.438;5.438;2024-03-23T04:02:03;100896.09;;;10.29;100.00
77793;BME280;66983;51.438;5.438;2024-03-23T04:04:29;100898.00;;;10.26;100.00
77793;BME280;66983;51.438;5.438;2024-03-23T04:07:01;100911.59;;;10.16;100.00
77793;BME280;66983;51.438;5.438;2024-03-23T04:09:27;100902.94;;;10.11;100.00
77793;BME280;66983;51.438;5.438;2024-03-23T04:11:53;100899.63;;;10.05;100.00
77793;BME280;66983;51.438;5.438;2024-03-23T04:14:19;100902.50;;;9.99;100.00
77793;BME280;66983;51.438;5.438;2024-03-23T04:16:44;100901.69;;;9.97;100.00
77793;BME280;66983;51.438;5.438;2024-03-23T04:19:10;100899.00;;;9.97;100.00
77793;BME280;66983;51.438;5.438;2024-03-23T04:21:37;100892.00;;;9.94;100.00
77793;BME280;66983;51.438;5.438;2024-03-23T04:24:04;100902.75;;;9.91;100.00
77793;BME280;66983;51.438;5.438;2024-03-23T04:26:29;100911.56;;;9.93;100.00
77793;BME280;66983;51.438;5.438;2024-03-23T04:28:55;100904.53;;;9.91;100.00
77793;BME280;66983;51.438;5.438;2024-03-23T04:31:21;100900.16;;;9.90;100.00
77793;BME280;66983;51.438;5.438;2024-03-23T04:33:47;100901.00;;;9.90;100.00
77793;BME280;66983;51.438;5.438;2024-03-23T04:36:12;100892.97;;;9.92;100.00
77793;BME280;66983;51.438;5.438;2024-03-23T04:38:38;100895.69;;;9.90;100.00
77793;BME280;66983;51.438;5.438;2024-03-23T04:41:03;100885.19;;;9.87;100.00
77793;BME280;66983;51.438;5.438;2024-03-23T04:43:29;100895.94;;;9.84;100.00
77793;BME280;66983;51.438;5.438;2024-03-23T04:45:55;100905.00;;;9.78;100.00
77793;BME280;66983;51.438;5.438;2024-03-23T04:48:21;100899.81;;;9.74;100.00
77793;BME280;66983;51.438;5.438;2024-03-23T04:50:48;100899.06;;;9.70;100.00
77793;BME280;66983;51.438;5.438;2024-03-23T04:53:14;100900.94;;;9.67;100.00
77793;BME280;66983;51.438;5.438;2024-03-23T04:55:42;100895.56;;;9.68;100.00
77793;BME280;66983;51.438;5.438;2024-03-23T04:58:07;100907.19;;;9.66;100.00
77793;BME280;66983;51.438;5.438;2024-03-23T05:00:34;100913.38;;;9.66;100.00
77793;BME280;66983;51.438;5.438;2024-03-23T05:02:59;100906.13;;;9.71;100.00
77793;BME280;66983;51.438;5.438;2024-03-23T05:05:25;100910.69;;;9.68;100.00
77793;BME280;66983;51.438;5.438;2024-03-23T05:07:50;100886.78;;;9.66;100.00
77793;BME280;66983;51.438;5.438;2024-03-23T05:10:16;100897.31;;;9.69;100.00
77793;BME280;66983;51.438;5.438;2024-03-23T05:12:41;100895.56;;;9.68;100.00
77793;BME280;66983;51.438;5.438;2024-03-23T05:15:07;100903.47;;;9.71;100.00
77793;BME280;66983;51.438;5.438;2024-03-23T05:17:33;100900.66;;;9.76;100.00
77793;BME280;66983;51.438;5.438;2024-03-23T05:20:00;100888.25;;;9.75;100.00
77793;BME280;66983;51.438;5.438;2024-03-23T05:22:26;100886.66;;;9.69;100.00
77793;BME280;66983;51.438;5.438;2024-03-23T05:24:55;100903.56;;;9.68;100.00
77793;BME280;66983;51.438;5.438;2024-03-23T05:27:21;100901.91;;;9.64;100.00
77793;BME280;66983;51.438;5.438;2024-03-23T05:29:46;100898.53;;;9.61;100.00
77793;BME280;66983;51.438;5.438;2024-03-23T05:32:12;100899.25;;;9.64;100.00
77793;BME280;66983;51.438;5.438;2024-03-23T05:34:38;100895.78;;;9.62;100.00
77793;BME280;66983;51.438;5.438;2024-03-23T05:37:03;100898.44;;;9.62;100.00
77793;BME280;66983;51.438;5.438;2024-03-23T05:39:29;100900.22;;;9.62;100.00
77793;BME280;66983;51.438;5.438;2024-03-23T05:41:55;100878.41;;;9.52;100.00
77793;BME280;66983;51.438;5.438;2024-03-23T05:44:20;100893.06;;;9.64;100.00
77793;BME280;66983;51.438;5.438;2024-03-23T05:46:46;100902.97;;;9.60;100.00
77793;BME280;66983;51.438;5.438;2024-03-23T05:49:14;100892.34;;;9.60;100.00
77793;BME280;66983;51.438;5.438;2024-03-23T05:51:40;100893.13;;;9.62;100.00
77793;BME280;66983;51.438;5.438;2024-03-23T05:54:06;100893.94;;;9.64;100.00
77793;BME280;66983;51.438;5.438;2024-03-23T05:56:31;100889.44;;;9.66;100.00
77793;BME280;66983;51.438;5.438;2024-03-23T05:58:57;100887.69;;;9.65;100.00
77793;BME280;66983;51.438;5.438;2024-03-23T06:01:22;100883.19;;;9.67;100.00
77793;BME280;66983;51.438;5.438;2024-03-23T06:03:48;100889.44;;;9.66;100.00
77793;BME280;66983;51.438;5.438;2024-03-23T06:06:14;100878.03;;;9.63;100.00
77793;BME280;66983;51.438;5.438;2024-03-23T06:08:40;100885.91;;;9.66;100.00
77793;BME280;66983;51.438;5.438;2024-03-23T06:11:05;100886.00;;;9.63;100.00
77793;BME280;66983;51.438;5.438;2024-03-23T06:13:34;100893.94;;;9.64;100.00
77793;BME280;66983;51.438;5.438;2024-03-23T06:16:01;100889.53;;;9.63;100.00
77793;BME280;66983;51.438;5.438;2024-03-23T06:18:26;100899.06;;;9.70;100.00
77793;BME280;66983;51.438;5.438;2024-03-23T06:20:53;100909.50;;;9.76;100.00
77793;BME280;66983;51.438;5.438;2024-03-23T06:23:19;100908.47;;;9.80;100.00
77793;BME280;66983;51.438;5.438;2024-03-23T06:25:46;100912.53;;;9.91;100.00
77793;BME280;66983;51.438;5.438;2024-03-23T06:28:11;100914.06;;;9.98;100.00
77793;BME280;66983;51.438;5.438;2024-03-23T06:30:37;100903.25;;;10.02;100.00
77793;BME280;66983;51.438;5.438;2024-03-23T06:33:03;100908.44;;;10.07;100.00
77793;BME280;66983;51.438;5.438;2024-03-23T06:35:28;100914.56;;;10.09;100.00
77793;BME280;66983;51.438;5.438;2024-03-23T06:37:54;100910.78;;;10.14;100.00
77793;BME280;66983;51.438;5.438;2024-03-23T06:40:19;100912.59;;;10.14;100.00
77793;BME280;66983;51.438;5.438;2024-03-23T06:42:45;100910.94;;;10.11;100.00
77793;BME280;66983;51.438;5.438;2024-03-23T06:45:10;100918.78;;;10.14;100.00
77793;BME280;66983;51.438;5.438;2024-03-23T06:47:36;100914.38;;;10.13;100.00
77793;BME280;66983;51.438;5.438;2024-03-23T06:50:03;100915.19;;;10.15;100.00
77793;BME280;66983;51.438;5.438;2024-03-23T06:52:30;100907.19;;;10.15;100.00
77793;BME280;66983;51.438;5.438;2024-03-23T06:54:55;100913.53;;;10.13;100.00
77793;BME280;66983;51.438;5.438;2024-03-23T06:57:21;100918.06;;;10.11;100.00
77793;BME280;66983;51.438;5.438;2024-03-23T06:59:47;100921.84;;;10.04;100.00
77793;BME280;66983;51.438;5.438;2024-03-23T07:02:13;100928.19;;;10.00;100.00
77793;BME280;66983;51.438;5.438;2024-03-23T07:04:38;100926.34;;;10.02;100.00
77793;BME280;66983;51.438;5.438;2024-03-23T07:07:07;100926.50;;;9.97;100.00
77793;BME280;66983;51.438;5.438;2024-03-23T07:09:32;100923.75;;;10.00;100.00
77793;BME280;66983;51.438;5.438;2024-03-23T07:11:58;100926.34;;;10.02;100.00
77793;BME280;66983;51.438;5.438;2024-03-23T07:14:23;100925.31;;;10.06;100.00
77793;BME280;66983;51.438;5.438;2024-03-23T07:16:50;100924.25;;;10.11;100.00
77793;BME280;66983;51.438;5.438;2024-03-23T07:19:16;100920.72;;;10.11;100.00
77793;BME280;66983;51.438;5.438;2024-03-23T07:21:43;100923.97;;;10.19;100.00
77793;BME280;66983;51.438;5.438;2024-03-23T07:24:09;100928.22;;;10.25;100.00
77793;BME280;66983;51.438;5.438;2024-03-23T07:26:35;100934.31;;;10.28;100.00
77793;BME280;66983;51.438;5.438;2024-03-23T07:29:01;100930.94;;;10.23;100.00
77793;BME280;66983;51.438;5.438;2024-03-23T07:31:27;100923.13;;;10.17;100.00
77793;BME280;66983;51.438;5.438;2024-03-23T07:33:53;100931.03;;;10.20;100.00
77793;BME280;66983;51.438;5.438;2024-03-23T07:36:19;100929.31;;;10.17;100.00
77793;BME280;66983;51.438;5.438;2024-03-23T07:38:44;100932.03;;;10.16;100.00
77793;BME280;66983;51.438;5.438;2024-03-23T07:41:17;100924.06;;;10.16;100.00
77793;BME280;66983;51.438;5.438;2024-03-23T07:43:44;100937.97;;;10.26;100.00
77793;BME280;66983;51.438;5.438;2024-03-23T07:46:10;100930.63;;;10.32;100.00
77793;BME280;66983;51.438;5.438;2024-03-23T07:48:35;100923.34;;;10.37;100.00
77793;BME280;66983;51.438;5.438;2024-03-23T07:51:03;100920.63;;;10.39;100.00
77793;BME280;66983;51.438;5.438;2024-03-23T07:53:31;100912.44;;;10.43;100.00
77793;BME280;66983;51.438;5.438;2024-03-23T07:55:59;100923.69;;;10.51;100.00
77793;BME280;66983;51.438;5.438;2024-03-23T07:58:26;100916.31;;;10.58;100.00
77793;BME280;66983;51.438;5.438;2024-03-23T08:00:52;100923.34;;;10.61;100.00
77793;BME280;66983;51.438;5.438;2024-03-23T08:03:18;100926.13;;;10.58;100.00
77793;BME280;66983;51.438;5.438;2024-03-23T08:05:43;100922.41;;;10.62;100.00
77793;BME280;66983;51.438;5.438;2024-03-23T08:08:09;100923.28;;;10.62;100.00
77793;BME280;66983;51.438;5.438;2024-03-23T08:10:36;100923.91;;;10.69;100.00
77793;BME280;66983;51.438;5.438;2024-03-23T08:13:02;100923.66;;;10.75;100.00
77793;BME280;66983;51.438;5.438;2024-03-23T08:15:30;100914.75;;;10.76;100.00
77793;BME280;66983;51.438;5.438;2024-03-23T08:17:55;100919.03;;;10.80;100.00
77793;BME280;66983;51.438;5.438;2024-03-23T08:20:21;100913.53;;;10.84;100.00
77793;BME280;66983;51.438;5.438;2024-03-23T08:22:46;100916.91;;;10.90;100.00
77793;BME280;66983;51.438;5.438;2024-03-23T08:25:12;100917.75;;;10.90;100.00
77793;BME280;66983;51.438;5.438;2024-03-23T08:27:37;100905.09;;;10.95;100.00
77793;BME280;66983;51.438;5.438;2024-03-23T08:30:03;100908.44;;;11.00;100.00
77793;BME280;66983;51.438;5.438;2024-03-23T08:32:29;100911.13;;;11.00;100.00
77793;BME280;66983;51.438;5.438;2024-03-23T08:34:54;100916.50;;;10.99;100.00
77793;BME280;66983;51.438;5.438;2024-03-23T08:37:20;100907.41;;;11.04;100.00
77793;BME280;66983;51.438;5.438;2024-03-23T08:39:46;100903.69;;;11.08;100.00
77793;BME280;66983;51.438;5.438;2024-03-23T08:42:11;100898.34;;;11.08;100.00
77793;BME280;66983;51.438;5.438;2024-03-23T08:44:37;100900.72;;;11.16;100.00
77793;BME280;66983;51.438;5.438;2024-03-23T08:47:02;100904.78;;;11.25;100.00
77793;BME280;66983;51.438;5.438;2024-03-23T08:49:28;100901.19;;;11.26;100.00
77793;BME280;66983;51.438;5.438;2024-03-23T08:51:55;100901.69;;;11.35;100.00
77793;BME280;66983;51.438;5.438;2024-03-23T08:54:20;100903.38;;;11.38;100.00
77793;BME280;66983;51.438;5.438;2024-03-23T08:56:48;100905.00;;;11.42;100.00
77793;BME280;66983;51.438;5.438;2024-03-23T08:59:13;100904.19;;;11.40;100.00
77793;BME280;66983;51.438;5.438;2024-03-23T09:01:39;100905.66;;;11.47;100.00
77793;BME280;66983;51.438;5.438;2024-03-23T09:04:04;100914.22;;;11.55;100.00
77793;BME280;66983;51.438;5.438;2024-03-23T09:06:30;100948.59;;;11.63;100.00
77793;BME280;66983;51.438;5.438;2024-03-23T09:08:55;100955.81;;;11.39;100.00
77793;BME280;66983;51.438;5.438;2024-03-23T09:11:21;100935.53;;;11.13;100.00
77793;BME280;66983;51.438;5.438;2024-03-23T09:13:46;100937.47;;;10.86;100.00
77793;BME280;66983;51.438;5.438;2024-03-23T09:16:12;100923.34;;;10.61;100.00
77793;BME280;66983;51.438;5.438;2024-03-23T09:18:38;100933.19;;;10.59;100.00
77793;BME280;66983;51.438;5.438;2024-03-23T09:21:11;100930.69;;;10.54;100.00
77793;BME280;66983;51.438;5.438;2024-03-23T09:23:36;100928.19;;;10.49;100.00
77793;BME280;66983;51.438;5.438;2024-03-23T09:26:05;100922.16;;;10.44;100.00
77793;BME280;66983;51.438;5.438;2024-03-23T09:28:33;100920.47;;;10.42;100.00
77793;BME280;66983;51.438;5.438;2024-03-23T09:31:06;100928.59;;;10.39;100.00
77793;BME280;66983;51.438;5.438;2024-03-23T09:33:41;100916.25;;;10.36;100.00
77793;BME280;66983;51.438;5.438;2024-03-23T09:36:08;100924.38;;;10.33;100.00
77793;BME280;66983;51.438;5.438;2024-03-23T09:38:34;100918.16;;;10.33;100.00
77793;BME280;66983;51.438;5.438;2024-03-23T09:41:00;100918.34;;;10.28;100.00
77793;BME280;66983;51.438;5.438;2024-03-23T09:43:25;100916.59;;;10.27;100.00
77793;BME280;66983;51.438;5.438;2024-03-23T09:45:52;100920.94;;;10.30;100.00
77793;BME280;66983;51.438;5.438;2024-03-23T09:48:18;100912.84;;;10.33;100.00
77793;BME280;66983;51.438;5.438;2024-03-23T09:50:44;100906.34;;;10.40;100.00
77793;BME280;66983;51.438;5.438;2024-03-23T09:53:12;100908.94;;;10.41;100.00
77793;BME280;66983;51.438;5.438;2024-03-23T09:55:43;100917.75;;;10.43;100.00
77793;BME280;66983;51.438;5.438;2024-03-23T09:58:13;100908.94;;;10.41;100.00
77793;BME280;66983;51.438;5.438;2024-03-23T10:00:39;100905.34;;;10.42;100.00
77793;BME280;66983;51.438;5.438;2024-03-23T10:03:05;100919.56;;;10.43;100.00
77793;BME280;66983;51.438;5.438;2024-03-23T10:05:32;100932.66;;;10.49;100.00
77793;BME280;66983;51.438;5.438;2024-03-23T10:10:38;100922.91;;;10.25;100.00
77793;BME280;66983;51.438;5.438;2024-03-23T10:13:04;100913.69;;;10.08;100.00
77793;BME280;66983;51.438;5.438;2024-03-23T10:15:30;100914.16;;;9.95;100.00
77793;BME280;66983;51.438;5.438;2024-03-23T10:18:17;100909.25;;;9.84;100.00
77793;BME280;66983;51.438;5.438;2024-03-23T10:20:43;100895.38;;;9.74;100.00
77793;BME280;66983;51.438;5.438;2024-03-23T10:23:16;100894.50;;;9.74;100.00
77793;BME280;66983;51.438;5.438;2024-03-23T10:25:42;100899.72;;;9.77;100.00
77793;BME280;66983;51.438;5.438;2024-03-23T10:28:07;100904.03;;;9.81;100.00
77793;BME280;66983;51.438;5.438;2024-03-23T10:30:33;100908.19;;;9.88;100.00
77793;BME280;66983;51.438;5.438;2024-03-23T10:33:11;100902.53;;;9.97;100.00
77793;BME280;66983;51.438;5.438;2024-03-23T10:35:38;100894.19;;;10.08;100.00
77793;BME280;66983;51.438;5.438;2024-03-23T10:38:07;100888.44;;;10.18;100.00
77793;BME280;66983;51.438;5.438;2024-03-23T10:40:37;100892.50;;;10.30;100.00
77793;BME280;66983;51.438;5.438;2024-03-23T10:43:06;100899.41;;;10.36;100.00
77793;BME280;66983;51.438;5.438;2024-03-23T10:45:33;100897.63;;;10.36;100.00
77793;BME280;66983;51.438;5.438;2024-03-23T10:47:59;100900.16;;;10.39;100.00
77793;BME280;66983;51.438;5.438;2024-03-23T10:50:25;100893.16;;;10.37;100.00
77793;BME280;66983;51.438;5.438;2024-03-23T10:52:53;100888.66;;;10.39;100.00
77793;BME280;66983;51.438;5.438;2024-03-23T10:55:22;100893.50;;;10.51;100.00
77793;BME280;66983;51.438;5.438;2024-03-23T10:57:54;100887.50;;;10.68;100.00
77793;BME280;66983;51.438;5.438;2024-03-23T11:00:21;100878.94;;;10.83;100.00
77793;BME280;66983;51.438;5.438;2024-03-23T11:02:49;100877.44;;;10.98;100.00
77793;BME280;66983;51.438;5.438;2024-03-23T11:07:51;100879.06;;;11.02;100.00
77793;BME280;66983;51.438;5.438;2024-03-23T11:10:30;100883.47;;;11.03;100.00
77793;BME280;66983;51.438;5.438;2024-03-23T11:12:57;100884.28;;;11.05;100.00
77793;BME280;66983;51.438;5.438;2024-03-23T11:15:23;100882.34;;;11.08;100.00
77793;BME280;66983;51.438;5.438;2024-03-23T11:18:05;100891.47;;;11.03;100.00
77793;BME280;66983;51.438;5.438;2024-03-23T11:20:36;100896.03;;;10.99;100.00
77793;BME280;66983;51.438;5.438;2024-03-23T11:23:02;100893.88;;;10.87;100.00
77793;BME280;66983;51.438;5.438;2024-03-23T11:25:29;100889.72;;;10.80;100.00
77793;BME280;66983;51.438;5.438;2024-03-23T11:28:10;100871.03;;;10.80;100.00
77793;BME280;66983;51.438;5.438;2024-03-23T11:30:36;100874.41;;;10.85;100.00
77793;BME280;66983;51.438;5.438;2024-03-23T11:33:03;100880.34;;;10.92;100.00
77793;BME280;66983;51.438;5.438;2024-03-23T11:35:34;100881.78;;;11.00;100.00
77793;BME280;66983;51.438;5.438;2024-03-23T11:38:11;100887.00;;;11.03;100.00
77793;BME280;66983;51.438;5.438;2024-03-23T11:40:46;100893.94;;;11.07;100.00
77793;BME280;66983;51.438;5.438;2024-03-23T11:43:19;100893.19;;;11.04;100.00
77793;BME280;66983;51.438;5.438;2024-03-23T11:45:48;100900.28;;;11.05;100.00
77793;BME280;66983;51.438;5.438;2024-03-23T11:48:22;100900.63;;;10.96;100.00
77793;BME280;66983;51.438;5.438;2024-03-23T11:50:50;100889.91;;;10.97;100.00
77793;BME280;66983;51.438;5.438;2024-03-23T11:53:21;100914.28;;;10.88;100.00
77793;BME280;66983;51.438;5.438;2024-03-23T11:55:58;100911.03;;;10.80;100.00
77793;BME280;66983;51.438;5.438;2024-03-23T11:58:26;100902.06;;;10.59;100.00
77793;BME280;66983;51.438;5.438;2024-03-23T12:00:56;100904.16;;;10.51;100.00
77793;BME280;66983;51.438;5.438;2024-03-23T12:03:26;100912.53;;;10.40;100.00
77793;BME280;66983;51.438;5.438;2024-03-23T12:05:55;100916.22;;;10.38;100.00
77793;BME280;66983;51.438;5.438;2024-03-23T12:08:29;100926.81;;;10.39;100.00
77793;BME280;66983;51.438;5.438;2024-03-23T12:11:11;100937.78;;;10.30;100.00
77793;BME280;66983;51.438;5.438;2024-03-23T12:13:38;100922.44;;;10.12;100.00
77793;BME280;66983;51.438;5.438;2024-03-23T12:16:11;100899.84;;;9.99;100.00
77793;BME280;66983;51.438;5.438;2024-03-23T12:18:38;100889.03;;;10.03;100.00
77793;BME280;66983;51.438;5.438;2024-03-23T12:21:06;100897.34;;;10.19;100.00
77793;BME280;66983;51.438;5.438;2024-03-23T12:23:31;100891.91;;;10.22;100.00
77793;BME280;66983;51.438;5.438;2024-03-23T12:25:58;100884.63;;;10.27;100.00
77793;BME280;66983;51.438;5.438;2024-03-23T12:28:23;100881.63;;;10.36;100.00
77793;BME280;66983;51.438;5.438;2024-03-23T12:30:49;100891.09;;;10.43;100.00
77793;BME280;66983;51.438;5.438;2024-03-23T12:33:14;100885.84;;;10.42;100.00
77793;BME280;66983;51.438;5.438;2024-03-23T12:35:40;100875.13;;;10.43;100.00
77793;BME280;66983;51.438;5.438;2024-03-23T12:38:06;100884.63;;;10.50;100.00
77793;BME280;66983;51.438;5.438;2024-03-23T12:40:32;100878.09;;;10.59;100.00
77793;BME280;66983;51.438;5.438;2024-03-23T12:42:57;100865.25;;;10.69;100.00
77793;BME280;66983;51.438;5.438;2024-03-23T12:45:23;100864.97;;;10.76;100.00
77793;BME280;66983;51.438;5.438;2024-03-23T12:47:48;100856.53;;;10.65;100.00
77793;BME280;66983;51.438;5.438;2024-03-23T12:50:14;100853.59;;;10.71;100.00
77793;BME280;66983;51.438;5.438;2024-03-23T12:52:39;100839.53;;;10.68;100.00
77793;BME280;66983;51.438;5.438;2024-03-23T12:55:05;100862.78;;;10.64;100.00
77793;BME280;66983;51.438;5.438;2024-03-23T12:57:32;100857.53;;;10.63;100.00
77793;BME280;66983;51.438;5.438;2024-03-23T12:59:58;100844.38;;;10.58;100.00
77793;BME280;66983;51.438;5.438;2024-03-23T13:02:24;100847.28;;;10.74;100.00
77793;BME280;66983;51.438;5.438;2024-03-23T13:04:52;100848.63;;;10.85;100.00
77793;BME280;66983;51.438;5.438;2024-03-23T13:07:19;100859.81;;;10.94;100.00
77793;BME280;66983;51.438;5.438;2024-03-23T13:09:45;100834.66;;;11.01;100.00
77793;BME280;66983;51.438;5.438;2024-03-23T13:12:11;100855.56;;;11.11;100.00
77793;BME280;66983;51.438;5.438;2024-03-23T13:14:40;100852.63;;;11.17;100.00
77793;BME280;66983;51.438;5.438;2024-03-23T13:17:06;100852.63;;;11.17;100.00
77793;BME280;66983;51.438;5.438;2024-03-23T13:19:32;100850.50;;;11.26;100.00
77793;BME280;66983;51.438;5.438;2024-03-23T13:21:58;100850.25;;;11.32;100.00
77793;BME280;66983;51.438;5.438;2024-03-23T13:24:26;100852.00;;;11.33;100.00
77793;BME280;66983;51.438;5.438;2024-03-23T13:26:53;100864.28;;;11.37;100.00
77793;BME280;66983;51.438;5.438;2024-03-23T13:29:19;100869.00;;;11.30;100.00
77793;BME280;66983;51.438;5.438;2024-03-23T13:31:46;100855.84;;;11.26;100.00
77793;BME280;66983;51.438;5.438;2024-03-23T13:34:12;100855.97;;;11.22;100.00
77793;BME280;66983;51.438;5.438;2024-03-23T13:36:43;100854.09;;;11.25;100.00